Flight Track Log - Related Links

Times and Time Zones

All times are in EDT time to prevent confusion due to time zone crossing. See the UAL4407 flight status page for this flight to view local times or setup timezone preferences in your user account.

Time Position Orientation Groundspeed Altitude Reporting Facility
EDT Latitude Longitude Course Direction KTS MPH feet Rate Location/Type
Sun 06:09:00 AM 33.1482 -79.9500 North  Level FlightAware Approximate
Sun 06:09:19 AM 32.9031 -79.9656 13° North 226 260 6,800  Level Jacksonville Center
Sun 06:10:00 AM 33.2379 -79.9291 North  Level FlightAware Approximate
Sun 06:10:19 AM 32.9669 -79.9314 24° Northeast 277 319 8,700  Level Jacksonville Center
Sun 06:11:00 AM 33.3266 -79.9034 23° Northeast  Level FlightAware Approximate
Sun 06:11:19 AM 33.0506 -79.9336 359° North 301 346 10,000  Level Jacksonville Center
Sun 06:12:00 AM 33.4145 -79.8738 North  Level FlightAware Approximate
Sun 06:12:19 AM 33.1486 -79.9378 358° North 323 372 11,200  Level Jacksonville Center
Sun 06:13:00 AM 33.5043 -79.8512 13° North  Level FlightAware Approximate
Sun 06:13:19 AM 33.2489 -79.9369 360° North 343 395 13,100  Level Jacksonville Center
Sun 06:14:00 AM 33.5936 -79.8257 13° North  Level FlightAware Approximate
Sun 06:14:19 AM 33.3606 -79.9033 14° North 360 414 15,500  Level Jacksonville Center
Sun 06:15:19 AM 33.4561 -79.8778 13° North 365 420 17,200 1,500 Climbing Jacksonville Center
Sun 06:16:19 AM 33.5597 -79.8494 13° North 370 426 18,500 900 Climbing Jacksonville Center
Sun 06:17:19 AM 33.6633 -79.8183 14° North 370 426 19,000 250 Climbing Jacksonville Center
Sun 06:18:19 AM 33.7706 -79.7672 22° Northeast 383 441 19,000  Level Jacksonville Center
Sun 06:19:19 AM 33.8756 -79.7083 25° Northeast 402 463 19,000 300 Level Jacksonville Center
Sun 06:20:19 AM 33.9806 -79.6519 24° Northeast 408 470 19,600 1,050 Climbing Jacksonville Center
Sun 06:21:19 AM 34.0856 -79.5953 24° Northeast 413 475 21,100 1,650 Climbing Jacksonville Center
Sun 06:22:19 AM 34.1864 -79.5439 23° Northeast 413 475 22,900 1,850 Climbing Jacksonville Center
Sun 06:23:19 AM 34.2833 -79.5025 19° North 397 457 24,800 1,471 Climbing Jacksonville Center
Sun 06:24:54 AM 34.4486 -79.4828 North 387 445 26,700 835 Climbing Washington Center
Sun 06:25:57 AM 34.5483 -79.4322 23° Northeast 387 445 27,000 150 Climbing Washington Center
Sun 06:26:54 AM 34.6522 -79.3792 23° Northeast 387 445 27,000  Level Washington Center
Sun 06:27:57 AM 34.7561 -79.3283 22° Northeast 393 452 27,000 585 Level Washington Center
Sun 06:28:57 AM 34.8558 -79.2747 24° Northeast 393 452 28,200 1,300 Climbing Washington Center
Sun 06:29:57 AM 34.9533 -79.2233 23° Northeast 393 452 29,600 1,487 Climbing Washington Center
Sun 06:30:54 AM 35.0508 -79.1744 22° Northeast 382 440 31,100 1,538 Climbing Washington Center
Sun 06:31:54 AM 35.1483 -79.1228 23° Northeast 377 434 32,600 1,500 Climbing Washington Center
Sun 06:32:54 AM 35.2417 -79.0736 23° Northeast 377 434 34,100 1,150 Climbing Washington Center
Sun 06:33:54 AM 35.3200 -79.0336 23° Northeast 377 434 34,900 450 Climbing Washington Center
Sun 06:34:54 AM 35.4236 -78.9794 23° Northeast 371 427 35,000 50 Climbing Washington Center
Sun 06:35:54 AM 35.5297 -78.9253 23° Northeast 382 440 35,000  Level Washington Center
Sun 06:36:56 AM 35.6378 -78.8658 24° Northeast 402 463 35,000  Level Washington Center
Sun 06:37:56 AM 35.7519 -78.8067 23° Northeast 423 487 35,000  Level Washington Center
Sun 06:38:54 AM 35.8619 -78.7469 24° Northeast 428 493 35,000  Level Washington Center
Sun 06:39:57 AM 35.9742 -78.6847 24° Northeast 428 493 35,000  Level Washington Center
Sun 06:40:54 AM 36.0864 -78.6250 23° Northeast 428 493 35,000  Level Washington Center
Sun 06:41:56 AM 36.2006 -78.5650 23° Northeast 428 493 35,000  Level Washington Center
Sun 06:42:57 AM 36.3128 -78.5022 24° Northeast 428 493 35,000  Level Washington Center
Sun 06:43:55 AM 36.4267 -78.4419 23° Northeast 433 498 35,000  Level Washington Center
Sun 06:44:55 AM 36.5408 -78.3789 24° Northeast 439 505 35,000  Level Washington Center
Sun 06:45:55 AM 36.6572 -78.3183 23° Northeast 439 505 35,000  Level Washington Center
Sun 06:46:56 AM 36.7692 -78.2522 25° Northeast 439 505 35,000  Level Washington Center
Sun 06:47:56 AM 36.8833 -78.1886 24° Northeast 444 511 35,000  Level Washington Center
Sun 06:48:57 AM 36.9972 -78.1275 23° Northeast 444 511 35,000  Level Washington Center
Sun 06:49:54 AM 37.1111 -78.0633 24° Northeast 444 511 35,000  Level Washington Center
Sun 06:50:55 AM 37.2231 -78.0019 24° Northeast 444 511 35,000  Level Washington Center
Sun 06:51:54 AM 37.3328 -77.9400 24° Northeast 438 504 35,000  Level Washington Center
Sun 06:52:57 AM 37.4422 -77.8806 23° Northeast 438 504 35,000  Level Washington Center
Sun 06:53:55 AM 37.5500 -77.8078 28° Northeast 433 498 35,000  Level Washington Center
Sun 06:54:56 AM 37.6497 -77.7189 35° Northeast 433 498 35,000  Level Washington Center
Sun 06:55:57 AM 37.7514 -77.6300 35° Northeast 438 504 35,000  Level Washington Center
Sun 06:56:56 AM 37.8489 -77.5378 37° Northeast 438 504 35,000  Level Washington Center
Sun 06:57:55 AM 37.9525 -77.4458 35° Northeast 438 504 35,000 -458 Level Washington Center
Sun 06:58:54 AM 38.0603 -77.3481 36° Northeast 438 504 34,100 -942 Descending Washington Center
Sun 06:59:56 AM 38.1597 -77.2553 36° Northeast 438 504 33,100 -537 Descending Washington Center
Sun 07:00:57 AM 38.2506 -77.1675 37° Northeast 443 510 33,000 -51 Descending Washington Center
Sun 07:01:54 AM 38.3558 -77.0717 36° Northeast 438 504 33,000  Level Washington Center
Sun 07:02:55 AM 38.4550 -76.9808 36° Northeast 438 504 33,000  Level Washington Center
Sun 07:03:55 AM 38.5561 -76.8847 37° Northeast 438 504 33,000  Level Washington Center
Sun 07:04:57 AM 38.6572 -76.7906 36° Northeast 443 510 33,000  Level Washington Center
Sun 07:05:54 AM 38.7542 -76.6911 39° Northeast 443 510 33,000  Level Washington Center
Sun 07:06:55 AM 38.8467 -76.5806 43° Northeast 443 510 33,000 -195 Level Washington Center
Sun 07:07:57 AM 38.9414 -76.4722 42° Northeast 448 516 32,600 -1,150 Descending Washington Center
Sun 07:08:55 AM 39.0339 -76.3639 42° Northeast 448 516 30,700 -1,966 Descending Washington Center
Sun 07:09:56 AM 39.1283 -76.2553 42° Northeast 448 516 28,700 -1,770 Descending Washington Center
Sun 07:10:57 AM 39.2247 -76.1517 40° Northeast 458 527 27,100 -843 Descending Washington Center
Sun 07:11:57 AM 39.3211 -76.0342 43° Northeast 471 542 27,000 -51 Descending Washington Center
Sun 07:12:55 AM 39.4111 -75.9247 43° Northeast 466 536 27,000 -353 Level Washington Center
Sun 07:13:56 AM 39.5114 -75.8094 42° Northeast 460 529 26,300 -1,377 Descending Washington Center
Sun 07:14:57 AM 39.6072 -75.6967 42° Northeast 465 535 24,200 -2,218 Descending Washington Center
Sun 07:15:55 AM 39.7011 -75.5833 43° Northeast 465 535 21,900 -2,420 Descending Washington Center
Sun 07:16:56 AM 39.7886 -75.4781 43° Northeast 450 518 19,400 -2,250 Descending Washington Center
Sun 07:17:55 AM 39.8800 -75.3672 43° Northeast 424 488 17,400 -2,132 Descending Washington Center
Sun 07:18:57 AM 39.9631 -75.2694 42° Northeast 403 464 15,100 -2,319 Descending Washington Center
Sun 07:19:54 AM 40.0419 -75.1714 44° Northeast 396 456 12,800 -2,067 Descending Washington Center
Sun 07:20:56 AM 40.1144 -75.0814 43° Northeast 381 438 11,000 -1,355 Descending Washington Center
Sun 07:22:29 AM 40.2167 -74.9667 41° Northeast 284 327 9,300 -1,156 Descending New York TRACON
Sun 07:23:11 AM 40.2500 -74.9167 49° Northeast 284 327 8,400 -765 Descending New York TRACON
Sun 07:24:11 AM 40.3000 -74.8333 52° Northeast 281 323 8,000 -632 Descending New York TRACON
Sun 07:25:05 AM 40.3500 -74.7667 45° Northeast 282 325 7,200 -947 Descending New York TRACON
Sun 07:26:05 AM 40.4000 -74.7000 45° Northeast 277 319 6,200 -1,000 Descending New York TRACON
Sun 07:26:59 AM 40.4667 -74.6667 21° North 282 325 5,300 -579 Descending New York TRACON
Sun 07:27:59 AM 40.5333 -74.6333 21° North 276 318 5,100 -100 Descending New York TRACON
Sun 07:28:59 AM 40.6167 -74.6167 North 279 321 5,100  Level New York TRACON
Sun 07:29:54 AM 40.6833 -74.6000 11° North 278 320 5,100 -53 Level New York TRACON
Sun 07:30:53 AM 40.7500 -74.5667 21° North 288 331 5,000 -478 Descending New York TRACON
Sun 07:31:47 AM 40.8000 -74.5000 45° Northeast 279 321 4,200 -550 Descending New York TRACON
Sun 07:32:53 AM 40.8500 -74.4000 57° Northeast 257 296 3,900 -550 Descending New York TRACON
Sun 07:33:47 AM 40.8500 -74.3333 90° East 223 257 3,100 -440 Descending New York TRACON
Sun 07:34:42 AM 40.8500 -74.2667 90° East 212 244 3,100  Level New York TRACON
Sun 07:35:42 AM 40.8500 -74.1833 90° East 205 236 3,100 -151 Level New York TRACON
Sun 07:36:41 AM 40.8500 -74.1167 90° East 195 224 2,800 -353 Descending New York TRACON
Sun 07:37:41 AM 40.8000 -74.1000 166° South 171 197 2,400 -600 Descending New York TRACON
Sun 07:38:41 AM 40.7667 -74.1167 201° Southwest 163 188 1,600 -800 Descending New York TRACON

Login

Don't have an account? Register now (free) for customized features, flight alerts, and more!